createdAt,value
2019-06-01T00:01:48.832Z,12.35
2019-06-01T00:04:20.042Z,11.63
2019-06-01T00:06:49.944Z,12.30
2019-06-01T00:09:19.893Z,12.50
2019-06-01T00:11:49.870Z,12.80
2019-06-01T00:14:19.932Z,11.80
2019-06-01T00:16:50.416Z,11.80
2019-06-01T00:19:20.638Z,12.88
2019-06-01T00:21:52.239Z,12.68
2019-06-01T00:24:22.345Z,13.28
2019-06-01T00:26:53.221Z,13.40
2019-06-01T00:29:23.385Z,13.45
2019-06-01T00:31:53.272Z,11.75
2019-06-01T00:34:23.690Z,12.25
2019-06-01T00:36:53.612Z,12.60
2019-06-01T00:39:23.487Z,12.40
2019-06-01T00:41:53.493Z,12.90
2019-06-01T00:44:23.539Z,12.98
2019-06-01T00:46:53.436Z,13.45
2019-06-01T00:49:23.399Z,12.85
2019-06-01T00:51:53.805Z,14.33
2019-06-01T00:54:23.752Z,14.85
2019-06-01T00:56:53.941Z,14.33
2019-06-01T00:59:24.322Z,14.07
2019-06-01T01:01:54.384Z,15.40
2019-06-01T01:04:24.454Z,14.85
2019-06-01T01:06:54.860Z,15.08
2019-06-01T01:09:24.992Z,14.75
2019-06-01T01:11:55.638Z,14.55
2019-06-01T01:14:25.573Z,15.23
2019-06-01T01:16:55.817Z,14.83
2019-06-01T01:19:25.896Z,14.07
2019-06-01T01:21:56.462Z,14.03
2019-06-01T01:24:26.497Z,14.95
2019-06-01T01:26:56.821Z,16.32
2019-06-01T01:29:26.874Z,16.62
2019-06-01T01:31:57.355Z,16.90
2019-06-01T01:34:27.485Z,17.73
2019-06-01T01:36:58.076Z,16.87
2019-06-01T01:39:28.199Z,17.42
2019-06-01T01:41:58.617Z,18.92
2019-06-01T01:44:28.703Z,18.70
2019-06-01T01:46:59.065Z,19.40
2019-06-01T01:49:30.418Z,20.43
2019-06-01T01:52:01.534Z,20.10
2019-06-01T01:54:32.719Z,18.23
2019-06-01T01:57:02.898Z,17.90
2019-06-01T01:59:32.883Z,18.85
2019-06-01T02:02:03.016Z,18.65
2019-06-01T02:04:32.889Z,17.95
2019-06-01T02:07:03.210Z,19.50
2019-06-01T02:09:33.199Z,18.87
2019-06-01T02:12:03.243Z,18.55
2019-06-01T02:14:33.576Z,19.17
2019-06-01T02:17:04.698Z,18.85
2019-06-01T02:19:36.493Z,20.17
2019-06-01T02:22:06.610Z,19.62
2019-06-01T02:24:36.632Z,18.98
2019-06-01T02:27:06.619Z,19.48
2019-06-01T02:29:37.115Z,19.05
2019-06-01T02:32:07.068Z,19.60
2019-06-01T02:34:38.374Z,19.05
2019-06-01T02:37:08.251Z,19.37
2019-06-01T02:39:38.524Z,19.40
2019-06-01T02:42:09.977Z,18.60
2019-06-01T02:44:39.935Z,20.10
2019-06-01T02:47:09.909Z,19.25
2019-06-01T02:49:40.332Z,19.90
2019-06-01T02:52:10.762Z,19.30
2019-06-01T02:54:41.014Z,19.98
2019-06-01T02:57:10.970Z,20.45
2019-06-01T02:59:40.862Z,21.12
2019-06-01T03:02:14.346Z,20.57
2019-06-01T03:04:43.330Z,19.75
2019-06-01T03:07:14.487Z,21.70
2019-06-01T03:09:45.797Z,19.92
2019-06-01T03:12:18.757Z,19.15
2019-06-01T03:14:51.283Z,19.75
2019-06-01T03:17:24.288Z,20.30
2019-06-01T03:19:57.490Z,21.00
2019-06-01T03:22:28.718Z,19.95
2019-06-01T03:25:00.463Z,20.82
2019-06-01T03:27:32.695Z,20.00
2019-06-01T03:30:08.921Z,19.85
2019-06-01T03:32:37.828Z,19.35
2019-06-01T03:35:08.843Z,19.98
2019-06-01T03:37:39.338Z,20.15
2019-06-01T03:40:15.686Z,20.77
2019-06-01T03:42:41.338Z,20.70
2019-06-01T03:45:12.710Z,20.43
2019-06-01T03:47:44.231Z,19.60
2019-06-01T03:50:14.409Z,19.17
2019-06-01T03:52:44.466Z,20.77
2019-06-01T03:55:14.415Z,21.33
2019-06-01T03:57:44.561Z,20.32
2019-06-01T04:00:14.533Z,20.00
2019-06-01T04:02:44.552Z,20.25
2019-06-01T04:05:14.597Z,19.70
2019-06-01T04:07:44.552Z,20.35
2019-06-01T04:10:14.605Z,18.37
2019-06-01T04:12:44.669Z,18.90
2019-06-01T04:15:16.802Z,19.32
2019-06-01T04:17:46.754Z,19.30
2019-06-01T04:20:16.866Z,19.92
2019-06-01T04:22:46.817Z,21.02
2019-06-01T04:25:16.913Z,20.35
2019-06-01T04:27:46.707Z,19.55
2019-06-01T04:30:16.759Z,19.27
2019-06-01T04:32:50.014Z,20.00
2019-06-01T04:35:18.308Z,18.65
2019-06-01T04:37:48.283Z,18.90
2019-06-01T04:40:18.200Z,17.55
2019-06-01T04:42:48.586Z,17.90
2019-06-01T04:45:18.970Z,18.55
2019-06-01T04:47:49.020Z,18.27
2019-06-01T04:50:19.001Z,19.23
2019-06-01T04:52:49.078Z,18.02
2019-06-01T04:55:19.131Z,17.82
2019-06-01T04:57:49.161Z,17.90
2019-06-01T05:00:27.320Z,18.80
2019-06-01T05:03:04.426Z,18.98
2019-06-01T05:05:22.829Z,19.02
2019-06-01T05:07:52.828Z,19.73
2019-06-01T05:10:22.958Z,19.05
2019-06-01T05:12:52.912Z,18.12
2019-06-01T05:15:22.881Z,18.07
2019-06-01T05:17:52.853Z,19.17
2019-06-01T05:20:22.798Z,17.70
2019-06-01T05:22:53.021Z,18.35
2019-06-01T05:25:22.900Z,18.82
2019-06-01T05:27:52.869Z,19.95
2019-06-01T05:30:22.951Z,19.98
2019-06-01T05:32:52.851Z,18.02
2019-06-01T05:35:22.872Z,18.57
2019-06-01T05:37:52.822Z,19.10
2019-06-01T05:40:23.388Z,19.75
2019-06-01T05:42:53.666Z,18.57
2019-06-01T05:45:23.698Z,18.32
2019-06-01T05:47:53.650Z,18.80
2019-06-01T05:50:23.542Z,17.92
2019-06-01T05:52:53.555Z,16.82
2019-06-01T05:55:23.561Z,16.30
2019-06-01T05:57:53.586Z,17.15
2019-06-01T06:00:45.805Z,18.65
2019-06-01T06:03:20.237Z,17.77
2019-06-01T06:05:47.393Z,16.95
2019-06-01T06:08:18.021Z,16.97
2019-06-01T06:10:48.183Z,14.90
2019-06-01T06:13:19.309Z,15.13
2019-06-01T06:15:49.801Z,13.10
2019-06-01T06:18:19.862Z,13.93
2019-06-01T06:20:49.857Z,12.30
2019-06-01T06:23:20.546Z,11.30
2019-06-01T06:25:50.895Z,10.75
2019-06-01T06:28:20.879Z,11.53
2019-06-01T06:30:50.846Z,10.25
2019-06-01T06:33:21.459Z,10.13
2019-06-01T06:35:51.460Z,9.83
2019-06-01T06:38:21.933Z,10.75
2019-06-01T06:40:51.963Z,9.60
2019-06-01T06:43:29.763Z,9.30
2019-06-01T06:45:53.509Z,9.30
2019-06-01T06:48:23.460Z,10.00
2019-06-01T06:50:53.441Z,10.20
2019-06-01T06:53:32.371Z,10.05
2019-06-01T06:55:55.238Z,9.48
2019-06-01T06:58:25.067Z,10.03
2019-06-01T07:00:56.416Z,9.45
2019-06-01T07:03:27.197Z,9.30
2019-06-01T07:05:58.339Z,9.30
2019-06-01T07:08:28.512Z,9.00
2019-06-01T07:10:58.759Z,9.50
2019-06-01T07:13:29.133Z,9.75
2019-06-01T07:15:59.111Z,9.43
2019-06-01T07:18:29.010Z,9.05
2019-06-01T07:20:59.025Z,9.15
2019-06-01T07:23:29.063Z,9.50
2019-06-01T07:25:58.977Z,9.45
2019-06-01T07:28:28.986Z,10.13
2019-06-01T07:30:59.016Z,9.58
2019-06-01T07:33:28.926Z,9.03
2019-06-01T07:35:58.972Z,8.15
2019-06-01T07:38:29.072Z,8.35
2019-06-01T07:40:59.241Z,8.38
2019-06-01T07:43:30.235Z,8.95
2019-06-01T07:46:00.155Z,8.73
2019-06-01T07:48:30.526Z,8.73
2019-06-01T07:51:00.566Z,7.28
2019-06-01T07:53:31.501Z,8.03
2019-06-01T07:56:02.716Z,7.47
2019-06-01T07:58:33.052Z,7.75
2019-06-01T08:01:04.235Z,8.18
2019-06-01T08:03:35.089Z,8.55
2019-06-01T08:06:05.198Z,8.48
2019-06-01T08:08:35.192Z,7.55
2019-06-01T08:11:05.234Z,8.15
2019-06-01T08:13:35.934Z,9.55
2019-06-01T08:16:06.233Z,9.05
2019-06-01T08:18:36.383Z,8.53
2019-06-01T08:21:06.390Z,8.18
2019-06-01T08:23:36.359Z,8.88
2019-06-01T08:26:07.065Z,7.33
2019-06-01T08:28:37.058Z,7.58
2019-06-01T08:31:07.019Z,7.20
2019-06-01T08:33:36.963Z,6.53
2019-06-01T08:36:06.947Z,7.70
2019-06-01T08:38:37.181Z,7.90
2019-06-01T08:41:07.308Z,7.40
2019-06-01T08:43:37.284Z,7.75
2019-06-01T08:46:07.280Z,7.75
2019-06-01T08:48:37.600Z,7.47
2019-06-01T08:51:07.581Z,7.42
2019-06-01T08:53:37.619Z,6.47
2019-06-01T08:56:07.597Z,6.40
2019-06-01T08:58:37.563Z,7.62
2019-06-01T09:01:07.508Z,6.60
2019-06-01T09:03:45.460Z,6.83
2019-06-01T09:06:09.195Z,5.40
2019-06-01T09:08:39.222Z,6.28
2019-06-01T09:11:09.195Z,6.42
2019-06-01T09:13:39.168Z,5.83
2019-06-01T09:16:09.038Z,4.90
2019-06-01T09:18:39.047Z,5.87
2019-06-01T09:21:08.972Z,5.50
2019-06-01T09:23:38.953Z,5.45
2019-06-01T09:26:08.898Z,5.42
2019-06-01T09:28:38.882Z,5.42
2019-06-01T09:31:08.924Z,5.92
2019-06-01T09:33:38.887Z,5.50
2019-06-01T09:36:08.971Z,5.55
2019-06-01T09:38:38.945Z,5.92
2019-06-01T09:41:09.836Z,5.05
2019-06-01T09:43:39.867Z,6.47
2019-06-01T09:46:09.802Z,4.83
2019-06-01T09:48:39.618Z,5.95
2019-06-01T09:51:09.651Z,5.67
2019-06-01T09:53:39.649Z,5.28
2019-06-01T09:56:09.605Z,5.28
2019-06-01T09:58:39.588Z,5.95
2019-06-01T10:01:09.548Z,4.80
2019-06-01T10:03:39.524Z,5.22
2019-06-01T10:06:09.378Z,5.65
2019-06-01T10:08:39.342Z,5.00
2019-06-01T10:11:09.307Z,5.25
2019-06-01T10:13:39.272Z,5.33
2019-06-01T10:16:09.285Z,5.95
2019-06-01T10:18:39.477Z,5.97
2019-06-01T10:21:09.512Z,5.75
2019-06-01T10:23:39.510Z,6.03
2019-06-01T10:26:09.518Z,6.22
2019-06-01T10:28:39.853Z,6.05
2019-06-01T10:31:09.772Z,5.53
2019-06-01T10:33:39.741Z,5.65
2019-06-01T10:36:19.780Z,5.53
2019-06-01T10:38:41.634Z,5.50
2019-06-01T10:41:11.616Z,5.70
2019-06-01T10:43:41.788Z,5.10
2019-06-01T10:46:11.777Z,4.72
2019-06-01T10:48:42.209Z,4.47
2019-06-01T10:51:12.156Z,4.97
2019-06-01T10:53:43.758Z,5.50
2019-06-01T10:56:13.986Z,5.78
2019-06-01T10:58:59.599Z,4.53
2019-06-01T11:01:15.866Z,4.17
2019-06-01T11:03:47.011Z,5.12
2019-06-01T11:06:17.278Z,4.45
2019-06-01T11:08:47.162Z,4.90
2019-06-01T11:11:17.375Z,4.55
2019-06-01T11:13:47.452Z,4.60
2019-06-01T11:16:17.408Z,4.83
2019-06-01T11:18:47.710Z,4.70
2019-06-01T11:21:18.059Z,4.67
2019-06-01T11:23:48.127Z,3.80
2019-06-01T11:26:18.093Z,4.60
2019-06-01T11:28:48.006Z,4.10
2019-06-01T11:31:18.047Z,5.12
2019-06-01T11:33:48.302Z,5.47
2019-06-01T11:36:18.262Z,4.92
2019-06-01T11:38:48.311Z,4.78
2019-06-01T11:41:18.851Z,5.30
2019-06-01T11:43:49.231Z,4.85
2019-06-01T11:46:19.231Z,5.50
2019-06-01T11:48:49.409Z,5.37
2019-06-01T11:51:19.547Z,4.83
2019-06-01T11:53:49.587Z,4.97
2019-06-01T11:56:19.749Z,5.35
2019-06-01T11:58:49.530Z,5.55
2019-06-01T12:01:19.416Z,5.80
2019-06-01T12:03:49.398Z,5.53
2019-06-01T12:06:19.667Z,6.00
2019-06-01T12:08:50.058Z,5.10
2019-06-01T12:11:20.312Z,4.50
2019-06-01T12:13:50.615Z,4.60
2019-06-01T12:16:20.641Z,4.30
2019-06-01T12:18:50.541Z,5.90
2019-06-01T12:21:20.490Z,4.58
2019-06-01T12:23:50.498Z,5.20
2019-06-01T12:26:20.454Z,4.85
2019-06-01T12:28:50.406Z,6.45
2019-06-01T12:31:20.370Z,4.35
2019-06-01T12:33:50.567Z,4.45
2019-06-01T12:36:20.734Z,4.60
2019-06-01T12:38:53.701Z,4.35
2019-06-01T12:41:24.213Z,4.45
2019-06-01T12:44:13.406Z,4.30
2019-06-01T12:46:43.804Z,4.17
2019-06-01T12:49:13.977Z,3.98
2019-06-01T12:51:44.539Z,3.98
2019-06-01T12:54:14.623Z,4.30
2019-06-01T12:56:44.830Z,4.08
2019-06-01T12:59:14.803Z,4.12
2019-06-01T13:01:45.165Z,4.30
2019-06-01T13:04:15.108Z,3.65
2019-06-01T13:06:48.912Z,4.10
2019-06-01T13:09:16.654Z,3.62
2019-06-01T13:11:47.364Z,4.00
2019-06-01T13:14:17.775Z,3.80
2019-06-01T13:16:58.691Z,3.50
2019-06-01T13:19:19.775Z,3.75
2019-06-01T13:21:50.195Z,3.85
2019-06-01T13:24:20.462Z,3.33
2019-06-01T13:26:50.274Z,4.47
2019-06-01T13:29:20.304Z,4.12
2019-06-01T13:31:50.531Z,4.20
2019-06-01T13:34:20.882Z,3.55
2019-06-01T13:36:50.896Z,4.40
2019-06-01T13:39:20.812Z,3.90
2019-06-01T13:41:51.542Z,3.80
2019-06-01T13:44:21.677Z,3.90
2019-06-01T13:46:51.614Z,3.60
2019-06-01T13:49:22.489Z,3.40
2019-06-01T13:51:54.671Z,3.40
2019-06-01T13:54:25.645Z,3.62
2019-06-01T13:56:55.657Z,4.00
2019-06-01T13:59:25.525Z,3.15
2019-06-01T14:01:55.475Z,3.20
2019-06-01T14:04:25.443Z,3.92
2019-06-01T14:06:55.552Z,3.65
2019-06-01T14:09:25.582Z,3.70
2019-06-01T14:11:55.932Z,3.12
2019-06-01T14:14:25.913Z,3.60
2019-06-01T14:16:55.827Z,3.50
2019-06-01T14:19:25.893Z,3.40
2019-06-01T14:21:56.816Z,3.02
2019-06-01T14:24:26.734Z,3.17
2019-06-01T14:26:57.093Z,3.02
2019-06-01T14:29:26.965Z,3.95
2019-06-01T14:31:57.274Z,3.67
2019-06-01T14:34:27.446Z,3.72
2019-06-01T14:36:57.387Z,3.22
2019-06-01T14:39:27.345Z,3.87
2019-06-01T14:41:57.665Z,3.08
2019-06-01T14:44:27.709Z,3.02
2019-06-01T14:47:02.298Z,2.52
2019-06-01T14:49:29.298Z,2.77
2019-06-01T14:51:59.186Z,2.50
2019-06-01T14:54:29.144Z,3.00
2019-06-01T14:56:59.220Z,3.08
2019-06-01T14:59:29.515Z,3.12
2019-06-01T15:01:59.471Z,3.17
2019-06-01T15:04:30.495Z,3.12
2019-06-01T15:07:00.287Z,3.25
2019-06-01T15:09:30.174Z,3.17
2019-06-01T15:12:00.131Z,3.22
2019-06-01T15:14:30.125Z,3.52
2019-06-01T15:16:59.945Z,3.12
2019-06-01T15:19:30.446Z,3.50
2019-06-01T15:22:00.331Z,3.30
2019-06-01T15:24:30.364Z,3.30
2019-06-01T15:27:00.337Z,3.20
2019-06-01T15:29:30.296Z,2.87
2019-06-01T15:32:00.262Z,3.55
2019-06-01T15:34:30.133Z,3.58
2019-06-01T15:37:00.123Z,3.58
2019-06-01T15:39:30.069Z,3.40
2019-06-01T15:42:01.259Z,3.50
2019-06-01T15:44:31.286Z,3.87
2019-06-01T15:47:02.076Z,3.80
2019-06-01T15:49:32.120Z,4.12
2019-06-01T15:52:02.144Z,3.42
2019-06-01T15:54:32.032Z,4.37
2019-06-01T15:57:02.692Z,3.85
2019-06-01T15:59:32.748Z,4.10
2019-06-01T16:02:03.475Z,3.70
2019-06-01T16:04:33.539Z,3.33
2019-06-01T16:07:03.618Z,4.22
2019-06-01T16:09:42.599Z,3.80
2019-06-01T16:12:05.623Z,3.80
2019-06-01T16:14:35.574Z,4.37
2019-06-01T16:17:05.566Z,4.12
2019-06-01T16:19:35.528Z,4.55
2019-06-01T16:22:05.520Z,4.05
2019-06-01T16:24:35.489Z,4.45
2019-06-01T16:27:05.634Z,4.30
2019-06-01T16:29:35.529Z,4.00
2019-06-01T16:32:05.513Z,4.55
2019-06-01T16:34:35.374Z,4.35
2019-06-01T16:37:05.461Z,4.37
2019-06-01T16:39:35.406Z,4.00
2019-06-01T16:42:06.262Z,4.00
2019-06-01T16:44:37.428Z,4.20
2019-06-01T16:47:07.321Z,4.62
2019-06-01T16:49:37.329Z,4.17
2019-06-01T16:52:07.343Z,4.03
2019-06-01T16:54:37.646Z,4.20
2019-06-01T16:57:07.686Z,4.35
2019-06-01T16:59:37.672Z,4.10
2019-06-01T17:02:08.002Z,3.90
2019-06-01T17:04:38.466Z,3.92
2019-06-01T17:07:08.877Z,4.30
2019-06-01T17:09:40.256Z,3.98
2019-06-01T17:12:10.138Z,3.60
2019-06-01T17:14:40.102Z,3.10
2019-06-01T17:17:10.484Z,3.80
2019-06-01T17:19:40.431Z,4.03
2019-06-01T17:22:10.611Z,3.90
2019-06-01T17:24:40.585Z,3.60
2019-06-01T17:27:10.515Z,3.60
2019-06-01T17:29:40.399Z,3.70
2019-06-01T17:32:23.569Z,3.30
2019-06-01T17:34:42.052Z,3.37
2019-06-01T17:37:12.083Z,3.27
2019-06-01T17:39:42.072Z,3.60
2019-06-01T17:42:12.708Z,3.62
2019-06-01T17:44:42.894Z,3.45
2019-06-01T17:47:12.957Z,3.50
2019-06-01T17:49:43.194Z,2.90
2019-06-01T17:52:13.155Z,3.72
2019-06-01T17:54:44.220Z,3.58
2019-06-01T17:57:14.390Z,3.70
2019-06-01T17:59:44.556Z,3.67
2019-06-01T18:02:14.526Z,4.00
2019-06-01T18:04:44.795Z,4.05
2019-06-01T18:07:14.758Z,4.10
2019-06-01T18:09:44.971Z,4.10
2019-06-01T18:12:15.048Z,3.95
2019-06-01T18:14:45.003Z,4.42
2019-06-01T18:17:14.900Z,4.28
2019-06-01T18:19:44.933Z,3.80
2019-06-01T18:22:15.266Z,4.40
2019-06-01T18:24:45.236Z,4.15
2019-06-01T18:27:15.199Z,4.53
2019-06-01T18:29:48.730Z,4.90
2019-06-01T18:32:16.846Z,4.78
2019-06-01T18:34:46.788Z,4.45
2019-06-01T18:37:16.666Z,4.70
2019-06-01T18:39:48.080Z,3.85
2019-06-01T18:42:19.516Z,4.00
2019-06-01T18:44:50.435Z,4.05
2019-06-01T18:47:31.842Z,4.30
2019-06-01T18:49:52.054Z,4.58
2019-06-01T18:52:22.025Z,4.00
2019-06-01T18:54:51.986Z,4.42
2019-06-01T18:57:21.983Z,4.03
2019-06-01T18:59:51.948Z,4.30
2019-06-01T19:02:21.906Z,4.20
2019-06-01T19:04:52.033Z,4.08
2019-06-01T19:07:21.838Z,4.00
2019-06-01T19:09:52.029Z,4.30
2019-06-01T19:12:24.418Z,4.45
2019-06-01T19:14:53.959Z,4.00
2019-06-01T19:17:23.877Z,4.85
2019-06-01T19:19:54.076Z,4.55
2019-06-01T19:22:23.901Z,4.30
2019-06-01T19:24:53.938Z,4.50
2019-06-01T19:27:23.884Z,4.30
2019-06-01T19:29:53.864Z,4.50
2019-06-01T19:32:23.907Z,4.25
2019-06-01T19:34:53.914Z,4.37
2019-06-01T19:37:24.340Z,4.37
2019-06-01T19:39:54.308Z,4.10
2019-06-01T19:42:24.297Z,5.33
2019-06-01T19:44:54.358Z,6.00
2019-06-01T19:47:25.498Z,5.58
2019-06-01T19:49:55.449Z,6.30
2019-06-01T19:52:25.423Z,8.33
2019-06-01T19:54:55.332Z,8.83
2019-06-01T19:57:25.394Z,12.70
2019-06-01T19:59:55.301Z,15.43
2019-06-01T20:02:33.729Z,13.43
2019-06-01T20:04:56.778Z,6.33
2019-06-01T20:07:28.309Z,5.70
2019-06-01T20:09:58.294Z,9.15
2019-06-01T20:12:28.180Z,10.88
2019-06-01T20:14:58.330Z,10.50
2019-06-01T20:17:28.593Z,11.08
2019-06-01T20:19:58.628Z,11.20
2019-06-01T20:22:28.877Z,11.53
2019-06-01T20:24:58.841Z,10.98
2019-06-01T20:27:28.871Z,9.30
2019-06-01T20:29:58.746Z,10.25
2019-06-01T20:32:28.558Z,10.90
2019-06-01T20:34:58.472Z,10.05
2019-06-01T20:37:28.343Z,10.93
2019-06-01T20:39:58.282Z,10.58
2019-06-01T20:42:32.288Z,9.60
2019-06-01T20:45:00.227Z,8.10
2019-06-01T20:47:30.081Z,8.68
2019-06-01T20:50:00.455Z,8.48
2019-06-01T20:52:30.344Z,8.13
2019-06-01T20:55:00.403Z,8.38
2019-06-01T20:57:30.396Z,7.72
2019-06-01T21:00:00.743Z,7.72
2019-06-01T21:02:32.383Z,8.40
2019-06-01T21:05:02.436Z,9.58
2019-06-01T21:07:32.589Z,8.90
2019-06-01T21:10:02.619Z,9.08
2019-06-01T21:12:44.933Z,7.70
2019-06-01T21:15:05.992Z,8.53
2019-06-01T21:17:37.369Z,8.23
2019-06-01T21:20:08.318Z,8.63
2019-06-01T21:22:38.524Z,8.45
2019-06-01T21:25:09.453Z,13.75
2019-06-01T21:27:39.419Z,13.83
2019-06-01T21:30:09.860Z,15.18
2019-06-01T21:32:39.968Z,13.65
2019-06-01T21:35:10.223Z,13.38
2019-06-01T21:37:41.200Z,14.68
2019-06-01T21:40:12.083Z,14.33
2019-06-01T21:42:57.927Z,14.47
2019-06-01T21:45:15.399Z,14.50
2019-06-01T21:47:45.708Z,12.50
2019-06-01T21:50:17.988Z,13.05
2019-06-01T21:52:48.229Z,11.55
2019-06-01T21:55:18.336Z,9.63
2019-06-01T21:57:48.315Z,8.88
2019-06-01T22:00:28.793Z,9.35
2019-06-01T22:03:00.401Z,8.50
2019-06-01T22:05:30.536Z,8.25
2019-06-01T22:08:00.702Z,8.08
2019-06-01T22:10:30.654Z,9.00
2019-06-01T22:13:17.226Z,8.78
2019-06-01T22:15:32.371Z,8.03
2019-06-01T22:18:02.252Z,8.58
2019-06-01T22:20:32.336Z,8.68
2019-06-01T22:23:02.265Z,9.10
2019-06-01T22:25:32.805Z,8.70
2019-06-01T22:28:03.010Z,9.23
2019-06-01T22:30:33.073Z,8.68
2019-06-01T22:33:02.966Z,9.25
2019-06-01T22:35:33.241Z,9.38
2019-06-01T22:38:03.164Z,9.10
2019-06-01T22:40:33.249Z,8.65
2019-06-01T22:43:03.138Z,10.80
2019-06-01T22:45:34.330Z,10.18
2019-06-01T22:48:04.316Z,10.15
2019-06-01T22:50:34.309Z,9.60
2019-06-01T22:53:04.269Z,9.80
2019-06-01T22:55:34.315Z,9.15
2019-06-01T22:58:04.588Z,9.45
2019-06-01T23:00:34.562Z,10.25
2019-06-01T23:03:04.652Z,9.45
2019-06-01T23:05:34.610Z,9.63
2019-06-01T23:08:04.718Z,10.10
2019-06-01T23:10:35.584Z,9.53
2019-06-01T23:13:05.694Z,9.80
2019-06-01T23:15:35.673Z,9.80
2019-06-01T23:18:05.753Z,9.53
2019-06-01T23:20:35.690Z,8.70
2019-06-01T23:23:05.723Z,9.88
2019-06-01T23:25:35.708Z,9.00
2019-06-01T23:28:05.982Z,9.93
2019-06-01T23:30:35.952Z,10.00
2019-06-01T23:33:05.929Z,9.35
2019-06-01T23:35:36.480Z,8.38
2019-06-01T23:38:06.455Z,8.85
2019-06-01T23:40:37.428Z,9.28
2019-06-01T23:43:07.306Z,8.85
2019-06-01T23:45:37.331Z,8.80
2019-06-01T23:48:07.338Z,9.18
2019-06-01T23:50:37.510Z,8.85
2019-06-01T23:53:13.548Z,10.75
2019-06-01T23:55:39.582Z,9.18
2019-06-01T23:58:10.681Z,9.35
